Time;durP1;ratioP1;P1;durP2;ratioP2;P2;SDS_P1;SDS_P2;PMS_P1;PMS_P2;Temp;Humidity;BMP_temperature;BMP_pressure;BME280_temperature;BME280_humidity;BME280_pressure;Samples;Min_cycle;Max_cycle;Signal;HPM_P1;HPM_P2
2023/09/02 00:00:22;;;;;;;3.05;1.27;;;17.60;99.90;;;;;;5013358;28;20026;-51
2023/09/02 00:02:47;;;;;;;1.88;1.08;;;16.40;99.90;;;;;;5013203;28;20092;-51
2023/09/02 00:05:13;;;;;;;4.43;1.55;;;15.00;99.90;;;;;;5013004;28;20026;-54
2023/09/02 00:07:38;;;;;;;2.22;1.13;;;17.70;99.90;;;;;;5013112;28;20046;-45
2023/09/02 00:10:05;;;;;;;2.67;1.08;;;17.10;99.90;;;;;;5013038;28;20026;-46
2023/09/02 00:12:30;;;;;;;7.53;1.67;;;15.80;99.90;;;;;;5013097;28;20026;-48
2023/09/02 00:14:56;;;;;;;2.47;1.10;;;15.70;99.90;;;;;;5012647;28;20208;-49
2023/09/02 00:17:22;;;;;;;6.00;1.80;;;16.50;99.90;;;;;;5012955;28;20033;-47
2023/09/02 00:19:47;;;;;;;5.72;1.55;;;15.70;99.90;;;;;;5012962;28;20030;-50
2023/09/02 00:22:13;;;;;;;9.20;1.52;;;13.60;99.90;;;;;;5012691;28;20026;-45
2023/09/02 00:24:39;;;;;;;4.80;1.33;;;17.40;99.90;;;;;;5012808;28;20402;-48
2023/09/02 00:27:05;;;;;;;7.43;1.58;;;15.70;99.90;;;;;;5012506;28;20037;-47
2023/09/02 00:29:31;;;;;;;5.47;1.42;;;12.90;99.90;;;;;;5012780;28;20112;-49
2023/09/02 00:31:56;;;;;;;2.45;1.23;;;16.00;99.90;;;;;;5012553;28;20180;-49
2023/09/02 00:34:22;;;;;;;3.17;1.42;;;15.90;99.90;;;;;;5012803;28;20049;-51
2023/09/02 00:36:48;;;;;;;5.18;1.20;;;14.70;99.90;;;;;;5012279;28;20104;-49
2023/09/02 00:39:13;;;;;;;3.35;1.20;;;15.70;99.90;;;;;;5012555;28;20050;-48
2023/09/02 00:41:43;;;;;;;2.70;1.20;;;17.90;99.90;;;;;;5012328;28;20029;-49
2023/09/02 00:44:09;;;;;;;4.15;1.10;;;15.90;99.90;;;;;;5012259;28;20033;-48
2023/09/02 00:46:35;;;;;;;3.05;1.42;;;;;;;;;;5012354;28;20030;-49
2023/09/02 00:49:01;;;;;;;2.05;1.20;;;;;;;;;;5012418;28;20026;-47
2023/09/02 00:51:27;;;;;;;4.05;1.33;;;;;;;;;;5012161;28;20054;-52
2023/09/02 00:53:53;;;;;;;3.80;1.13;;;13.40;99.90;;;;;;5012120;28;20064;-53
2023/09/02 00:56:19;;;;;;;2.67;1.55;;;16.40;99.90;;;;;;5012043;28;20056;-45
2023/09/02 00:58:45;;;;;;;7.70;1.10;;;17.10;99.90;;;;;;5012149;28;20710;-48
2023/09/02 01:01:11;;;;;;;3.97;0.95;;;15.80;99.90;;;;;;5011877;28;20033;-44
2023/09/02 01:03:38;;;;;;;2.47;1.23;;;17.60;99.90;;;;;;5011985;28;20020;-47
2023/09/02 01:06:05;;;;;;;3.42;1.13;;;16.20;99.90;;;;;;5011643;28;20384;-47
2023/09/02 01:08:32;;;;;;;2.78;1.10;;;16.30;99.90;;;;;;5011782;28;20022;-44
2023/09/02 01:10:59;;;;;;;3.40;1.35;;;16.00;99.90;;;;;;5011898;28;20022;-48
2023/09/02 01:13:25;;;;;;;4.15;1.25;;;13.40;99.90;;;;;;5011668;28;20521;-45
2023/09/02 01:15:54;;;;;;;3.47;1.13;;;16.80;99.90;;;;;;5011786;28;20034;-49
2023/09/02 01:18:23;;;;;;;8.07;1.10;;;13.00;99.90;;;;;;5011719;28;20076;-45
2023/09/02 01:20:58;;;;;;;;;;;15.40;99.90;;;;;;5011903;28;20034;-49
2023/09/02 01:23:41;;;;;;;3.20;1.10;;;15.50;99.90;;;;;;5011459;28;19991;-45
2023/09/02 01:26:17;;;;;;;5.43;1.33;;;16.20;99.90;;;;;;4993852;28;20112;-49
2023/09/02 01:28:46;;;;;;;3.03;1.27;;;16.10;99.90;;;;;;5011376;28;20033;-46
2023/09/02 01:31:16;;;;;;;3.65;0.80;;;16.40;99.90;;;;;;5011422;28;20018;-45
2023/09/02 01:33:47;;;;;;;4.32;1.55;;;15.50;99.90;;;;;;5010788;28;20389;-45
2023/09/02 01:36:14;;;;;;;3.00;0.90;;;15.60;99.90;;;;;;4991485;28;20043;-46
2023/09/02 01:38:41;;;;;;;3.30;1.10;;;16.10;99.90;;;;;;4991786;28;20088;-45
2023/09/02 01:41:10;;;;;;;2.00;1.00;;;17.50;99.90;;;;;;4991601;28;20502;-45
2023/09/02 01:43:37;;;;;;;3.83;1.10;;;15.10;99.90;;;;;;4991533;28;20027;-45
2023/09/02 01:46:03;;;;;;;3.90;1.30;;;16.10;99.90;;;;;;4991661;28;20138;-46
2023/09/02 01:48:30;;;;;;;4.18;0.95;;;15.00;99.90;;;;;;4991575;28;20085;-46
2023/09/02 01:50:57;;;;;;;3.10;1.08;;;17.10;99.90;;;;;;4991334;28;20026;-46
2023/09/02 01:53:23;;;;;;;4.28;0.93;;;17.20;99.90;;;;;;4991635;28;20097;-44
2023/09/02 01:55:50;;;;;;;1.52;0.95;;;17.40;99.90;;;;;;4991386;28;20438;-51
2023/09/02 01:58:16;;;;;;;3.28;1.30;;;;;;;;;;4991393;28;20095;-49
2023/09/02 02:00:41;;;;;;;3.45;1.00;;;13.10;99.90;;;;;;4991463;28;20133;-44
2023/09/02 02:03:15;;;;;;;1.92;0.80;;;13.60;99.90;;;;;;4990989;28;20386;-45
2023/09/02 02:05:48;;;;;;;5.45;1.17;;;15.50;99.90;;;;;;4990939;28;20113;-45
2023/09/02 02:08:24;;;;;;;1.08;0.80;;;12.50;99.90;;;;;;4991186;28;20499;-46
2023/09/02 02:10:53;;;;;;;5.82;1.13;;;15.70;99.90;;;;;;4991272;28;20093;-50
2023/09/02 02:13:19;;;;;;;;;;;14.80;99.90;;;;;;4991572;28;20030;-48
2023/09/02 02:15:44;;;;;;;1.40;0.82;;;15.10;99.90;;;;;;4990956;28;19964;-46
2023/09/02 02:18:10;;;;;;;2.13;1.02;;;15.90;99.90;;;;;;4991072;28;20034;-46
2023/09/02 02:21:00;;;;;;;3.85;1.15;;;17.00;99.90;;;;;;4990812;28;20045;-51
2023/09/02 02:23:26;;;;;;;5.53;1.20;;;15.90;99.90;;;;;;4990924;28;20026;-52
2023/09/02 02:25:51;;;;;;;2.65;1.08;;;16.00;99.90;;;;;;4990981;28;20032;-50
2023/09/02 02:28:18;;;;;;;3.80;1.55;;;11.90;99.90;;;;;;4990672;28;20471;-52
2023/09/02 02:30:43;;;;;;;2.70;0.90;;;;;;;;;;4990696;28;20026;-49
2023/09/02 02:33:09;;;;;;;5.70;1.17;;;11.90;99.90;;;;;;4990841;28;20034;-51
2023/09/02 02:35:35;;;;;;;1.50;1.00;;;15.50;99.90;;;;;;4990440;28;20073;-45
2023/09/02 02:38:00;;;;;;;2.30;1.13;;;17.00;99.90;;;;;;4989490;28;20064;-49
2023/09/02 02:40:27;;;;;;;1.65;1.00;;;15.70;99.90;;;;;;4990769;28;20057;-49
2023/09/02 02:42:53;;;;;;;3.08;0.98;;;15.20;99.90;;;;;;4990517;28;20650;-48
2023/09/02 02:45:19;;;;;;;4.15;0.98;;;14.60;99.90;;;;;;4990707;28;20034;-52
2023/09/02 02:47:45;;;;;;;2.78;1.00;;;15.60;99.90;;;;;;4994398;28;20026;-45
2023/09/02 02:50:11;;;;;;;1.55;0.93;;;15.40;99.90;;;;;;4994799;28;20038;-43
2023/09/02 02:52:37;;;;;;;2.30;1.10;;;15.80;99.90;;;;;;4994505;28;20029;-48
2023/09/02 02:55:03;;;;;;;2.60;1.23;;;16.60;99.90;;;;;;4994668;28;20479;-53
2023/09/02 02:57:29;;;;;;;1.48;0.80;;;15.40;99.90;;;;;;4994758;28;20018;-47
2023/09/02 02:59:54;;;;;;;3.85;0.93;;;12.10;99.90;;;;;;4994401;28;20027;-52
2023/09/02 03:02:20;;;;;;;1.98;0.85;;;14.50;99.90;;;;;;4994815;28;20053;-53
2023/09/02 03:04:48;;;;;;;5.38;1.23;;;;;;;;;;4994330;28;20110;-52
2023/09/02 03:07:14;;;;;;;3.13;1.00;;;15.40;99.90;;;;;;4994451;28;20058;-49
2023/09/02 03:09:40;;;;;;;6.85;1.13;;;12.20;99.90;;;;;;4994246;28;20506;-48
2023/09/02 03:12:06;;;;;;;2.72;0.93;;;15.70;99.90;;;;;;4994375;28;20026;-56
2023/09/02 03:14:32;;;;;;;3.15;1.10;;;16.50;99.90;;;;;;4994352;28;20026;-47
2023/09/02 03:16:57;;;;;;;1.10;0.80;;;15.40;99.90;;;;;;4994266;28;20041;-53
2023/09/02 03:19:23;;;;;;;3.67;1.33;;;15.00;99.90;;;;;;4994323;28;20081;-55
2023/09/02 03:21:49;;;;;;;7.40;1.10;;;;;;;;;;4993967;28;20490;-43
2023/09/02 03:24:14;;;;;;;1.65;0.85;;;12.20;99.90;;;;;;4994092;28;20377;-56
2023/09/02 03:26:40;;;;;;;1.48;1.00;;;;;;;;;;4993943;28;20027;-45
2023/09/02 03:29:06;;;;;;;4.22;1.10;;;14.90;99.90;;;;;;4994122;28;20053;-47
2023/09/02 03:31:32;;;;;;;3.15;1.27;;;14.30;99.90;;;;;;4993877;28;20096;-45
2023/09/02 03:33:57;;;;;;;1.95;0.90;;;13.10;99.90;;;;;;4993924;28;20022;-52
2023/09/02 03:36:23;;;;;;;2.65;1.00;;;15.50;99.90;;;;;;4993830;28;20392;-50
2023/09/02 03:38:49;;;;;;;1.50;0.80;;;;;;;;;;4991949;28;20081;-48
2023/09/02 03:41:17;;;;;;;1.15;0.70;;;15.40;99.90;;;;;;4993576;28;20030;-50
2023/09/02 03:43:44;;;;;;;2.13;1.17;;;15.60;99.90;;;;;;4993418;28;20031;-51
2023/09/02 03:46:10;;;;;;;1.98;0.90;;;15.70;99.90;;;;;;4993588;28;20034;-53
2023/09/02 03:48:36;;;;;;;1.73;0.98;;;14.30;99.90;;;;;;4993654;28;20030;-50
2023/09/02 03:51:11;;;;;;;1.83;0.85;;;11.50;99.90;;;;;;4993642;28;20491;-53
2023/09/02 03:53:37;;;;;;;2.70;0.90;;;15.60;99.90;;;;;;4993313;28;20494;-52
2023/09/02 03:56:03;;;;;;;1.50;0.85;;;11.20;99.90;;;;;;4993357;28;20039;-46
2023/09/02 03:58:30;;;;;;;1.70;1.00;;;11.40;99.90;;;;;;4993037;28;20027;-55
2023/09/02 04:00:56;;;;;;;1.17;0.73;;;11.50;99.90;;;;;;4993456;28;20081;-47
2023/09/02 04:03:22;;;;;;;2.15;0.90;;;11.40;99.90;;;;;;4976049;28;20163;-53
2023/09/02 04:05:48;;;;;;;1.92;0.90;;;11.50;99.90;;;;;;4993108;28;20023;-51
2023/09/02 04:08:19;;;;;;;1.38;0.85;;;15.10;99.90;;;;;;4993229;28;20510;-51
2023/09/02 04:10:51;;;;;;;1.60;0.80;;;11.10;99.90;;;;;;4993134;28;20010;-51
2023/09/02 04:13:16;;;;;;;1.27;0.80;;;14.30;99.90;;;;;;4993091;28;20487;-45
2023/09/02 04:15:42;;;;;;;2.35;0.82;;;15.10;99.90;;;;;;4992885;28;20052;-50
2023/09/02 04:18:08;;;;;;;1.23;0.70;;;;;;;;;;4991713;28;20041;-52
2023/09/02 04:20:37;;;;;;;2.75;1.00;;;13.20;99.90;;;;;;4992900;28;20034;-53
2023/09/02 04:23:03;;;;;;;6.37;1.00;;;;;;;;;;4993137;28;20037;-46
2023/09/02 04:25:28;;;;;;;2.72;0.90;;;14.50;99.90;;;;;;4993304;28;20026;-44
2023/09/02 04:27:54;;;;;;;1.60;0.90;;;16.10;99.90;;;;;;4992664;28;20552;-44
2023/09/02 04:30:19;;;;;;;4.55;0.95;;;16.20;99.90;;;;;;4993012;28;20096;-50
2023/09/02 04:32:49;;;;;;;1.85;0.80;;;14.00;99.90;;;;;;4992741;28;20022;-50
2023/09/02 04:35:14;;;;;;;1.23;0.70;;;14.40;99.90;;;;;;4992838;28;20564;-55
2023/09/02 04:37:41;;;;;;;1.30;0.80;;;11.90;99.90;;;;;;4992786;28;20113;-44
2023/09/02 04:40:07;;;;;;;2.40;0.77;;;11.50;99.90;;;;;;4992754;28;20041;-51
2023/09/02 04:42:33;;;;;;;2.05;1.08;;;;;;;;;;4992795;28;20105;-44
2023/09/02 04:44:59;;;;;;;2.40;0.90;;;15.00;99.90;;;;;;4992673;28;20525;-48
2023/09/02 04:47:25;;;;;;;0.98;0.70;;;;;;;;;;4992618;28;20045;-50
2023/09/02 04:49:50;;;;;;;1.90;0.95;;;13.40;99.90;;;;;;4992431;28;20077;-50
2023/09/02 04:52:16;;;;;;;1.77;0.60;;;;;;;;;;4992735;28;20026;-52
2023/09/02 04:54:45;;;;;;;2.78;0.90;;;15.30;99.90;;;;;;4992352;28;20368;-52
2023/09/02 04:57:11;;;;;;;1.80;0.87;;;;;;;;;;4992552;28;20514;-46
2023/09/02 04:59:38;;;;;;;1.20;0.80;;;;;;;;;;4992464;28;20030;-49
2023/09/02 05:02:05;;;;;;;4.38;1.10;;;14.30;99.90;;;;;;4992280;28;20210;-48
2023/09/02 05:04:31;;;;;;;2.63;0.85;;;;;;;;;;4992283;28;20030;-47
2023/09/02 05:06:57;;;;;;;1.92;0.90;;;;;;;;;;4991898;28;20478;-47
2023/09/02 05:09:23;;;;;;;2.53;1.20;;;15.80;99.90;;;;;;4991486;28;20511;-46
2023/09/02 05:11:49;;;;;;;1.80;0.90;;;;;;;;;;4992025;28;20062;-45
2023/09/02 05:14:14;;;;;;;4.43;1.00;;;11.30;99.90;;;;;;4992332;28;20053;-55
2023/09/02 05:16:40;;;;;;;2.47;0.85;;;;;;;;;;4992022;28;20062;-44
2023/09/02 05:19:07;;;;;;;1.13;0.77;;;14.30;99.90;;;;;;4992031;28;20046;-51
2023/09/02 05:21:33;;;;;;;1.70;0.70;;;;;;;;;;4992455;28;20126;-46
2023/09/02 05:23:59;;;;;;;3.88;0.80;;;;;;;;;;4992084;28;20109;-45
2023/09/02 05:26:25;;;;;;;1.58;0.90;;;15.70;99.90;;;;;;4991927;28;20127;-53
2023/09/02 05:28:50;;;;;;;1.58;0.80;;;15.10;99.90;;;;;;4991825;28;20462;-43
2023/09/02 05:31:16;;;;;;;2.50;1.00;;;14.60;99.90;;;;;;4992020;28;20054;-44
2023/09/02 05:33:42;;;;;;;3.88;1.20;;;;;;;;;;4991924;28;20538;-47
2023/09/02 05:36:08;;;;;;;4.07;1.08;;;;;;;;;;4991879;28;20088;-53
2023/09/02 05:38:34;;;;;;;2.97;1.13;;;11.70;99.90;;;;;;4991902;28;20479;-54
2023/09/02 05:40:59;;;;;;;2.35;1.20;;;16.10;99.90;;;;;;4991789;28;20030;-44
2023/09/02 05:43:26;;;;;;;2.05;1.05;;;16.60;99.90;;;;;;4991868;28;20113;-51
2023/09/02 05:45:51;;;;;;;2.30;0.90;;;12.00;99.90;;;;;;4991543;28;20033;-51
2023/09/02 05:48:17;;;;;;;0.80;0.63;;;15.90;99.90;;;;;;4991389;28;20018;-53
2023/09/02 05:50:42;;;;;;;1.17;0.80;;;15.70;99.90;;;;;;4991532;28;20038;-45
2023/09/02 05:53:08;;;;;;;1.35;0.85;;;15.10;99.90;;;;;;4991790;28;20049;-45
2023/09/02 05:55:34;;;;;;;1.92;0.80;;;;;;;;;;4991156;28;20432;-50
2023/09/02 05:58:00;;;;;;;1.90;0.82;;;12.10;99.90;;;;;;4991486;28;20081;-52
2023/09/02 06:00:26;;;;;;;2.08;0.80;;;13.20;99.90;;;;;;4990803;28;20034;-45
2023/09/02 06:02:52;;;;;;;1.88;1.02;;;;;;;;;;4991707;28;20027;-51
2023/09/02 06:05:18;;;;;;;4.05;1.25;;;;;;;;;;4990806;28;21577;-46
2023/09/02 06:07:43;;;;;;;1.42;0.70;;;14.50;99.90;;;;;;4990072;28;20042;-50
2023/09/02 06:10:10;;;;;;;1.90;1.05;;;16.10;99.90;;;;;;4990716;28;20511;-48
2023/09/02 06:12:36;;;;;;;2.22;1.10;;;12.10;99.90;;;;;;4991312;28;20022;-54
2023/09/02 06:15:02;;;;;;;1.63;0.90;;;15.50;99.90;;;;;;4990962;28;20077;-45
2023/09/02 06:17:30;;;;;;;3.30;1.30;;;17.50;99.90;;;;;;4991040;28;20022;-51
2023/09/02 06:19:58;;;;;;;4.32;1.70;;;15.30;99.90;;;;;;4990908;28;20109;-48
2023/09/02 06:22:23;;;;;;;4.20;1.70;;;16.20;99.90;;;;;;4990967;28;20057;-50
2023/09/02 06:24:49;;;;;;;4.53;1.90;;;13.70;99.90;;;;;;4991158;28;20026;-54
2023/09/02 06:27:14;;;;;;;3.40;1.33;;;15.10;99.90;;;;;;4990593;28;20439;-51
2023/09/02 06:29:43;;;;;;;6.45;2.00;;;13.40;99.90;;;;;;4991024;28;20030;-47
2023/09/02 06:32:09;;;;;;;5.97;1.75;;;16.60;99.90;;;;;;4990548;28;20033;-54
2023/09/02 06:34:34;;;;;;;6.15;2.10;;;13.30;99.90;;;;;;4990904;28;20042;-44
2023/09/02 06:37:00;;;;;;;9.25;1.88;;;16.10;99.90;;;;;;4990866;28;20026;-46
2023/09/02 06:39:26;;;;;;;7.53;2.30;;;13.50;99.90;;;;;;4990922;28;20745;-49
2023/09/02 06:41:51;;;;;;;6.95;2.10;;;14.50;99.90;;;;;;4990893;28;20035;-47
2023/09/02 06:44:17;;;;;;;7.93;2.58;;;17.60;99.90;;;;;;4990547;28;20384;-52
2023/09/02 06:46:43;;;;;;;3.67;1.90;;;16.80;99.90;;;;;;4990350;28;20026;-45
2023/09/02 06:49:09;;;;;;;5.82;2.17;;;;;;;;;;4990756;28;20038;-50
2023/09/02 06:51:34;;;;;;;6.78;1.98;;;16.70;99.90;;;;;;4990275;28;20019;-45
2023/09/02 06:54:00;;;;;;;5.93;1.95;;;16.30;99.90;;;;;;4990832;28;20101;-48
2023/09/02 06:56:26;;;;;;;6.13;2.22;;;;;;;;;;4989552;28;20043;-51
2023/09/02 06:58:51;;;;;;;5.82;2.25;;;16.50;99.90;;;;;;4990775;28;20030;-50
2023/09/02 07:01:21;;;;;;;6.38;2.60;;;14.00;99.90;;;;;;4990868;28;20034;-50
2023/09/02 07:03:48;;;;;;;7.57;2.20;;;17.90;99.90;;;;;;4990319;28;20428;-52
2023/09/02 07:06:15;;;;;;;6.50;2.60;;;17.00;99.90;;;;;;4990717;28;20038;-48
2023/09/02 07:08:44;;;;;;;5.90;2.22;;;17.20;99.90;;;;;;4990395;28;20025;-47
2023/09/02 07:11:10;;;;;;;10.90;2.35;;;17.70;99.90;;;;;;4990552;28;20491;-51
2023/09/02 07:13:37;;;;;;;9.27;2.47;;;17.60;99.90;;;;;;4990458;28;20053;-47
2023/09/02 07:16:03;;;;;;;4.88;2.08;;;17.90;99.90;;;;;;4990281;28;20038;-45
2023/09/02 07:18:29;;;;;;;4.55;1.90;;;17.50;99.90;;;;;;4990379;28;20105;-49
2023/09/02 07:20:59;;;;;;;4.95;2.33;;;18.20;99.90;;;;;;4989440;28;20033;-49
2023/09/02 07:23:25;;;;;;;8.45;2.45;;;16.90;99.90;;;;;;4981537;28;20541;-46
2023/09/02 07:25:51;;;;;;;6.57;2.60;;;19.10;99.90;;;;;;4988399;28;20038;-52
2023/09/02 07:28:17;;;;;;;5.07;2.15;;;16.00;99.90;;;;;;4988548;28;20014;-49
2023/09/02 07:30:43;;;;;;;5.40;2.33;;;18.70;99.90;;;;;;4988268;28;20030;-48
2023/09/02 07:33:08;;;;;;;6.85;2.67;;;19.20;99.90;;;;;;4990856;28;20030;-53
2023/09/02 07:35:36;;;;;;;6.85;3.03;;;19.00;99.90;;;;;;4992402;28;20038;-51
2023/09/02 07:38:05;;;;;;;5.78;2.50;;;18.90;99.90;;;;;;4993806;28;20565;-49
2023/09/02 07:40:31;;;;;;;;;;;18.90;99.90;;;;;;4994430;28;20034;-52
2023/09/02 07:43:00;;;;;;;7.55;2.72;;;19.30;99.90;;;;;;4993903;28;19993;-55
2023/09/02 07:45:26;;;;;;;6.53;2.28;;;18.90;99.90;;;;;;4993838;28;20053;-53
2023/09/02 07:47:53;;;;;;;4.88;2.40;;;18.10;99.90;;;;;;4993880;28;20064;-48
2023/09/02 07:50:18;;;;;;;4.07;2.00;;;18.80;99.90;;;;;;4993964;28;20101;-51
2023/09/02 07:52:44;;;;;;;6.22;2.25;;;19.00;99.90;;;;;;4993855;28;20453;-51
2023/09/02 07:55:10;;;;;;;6.75;3.42;;;18.70;99.90;;;;;;4993719;28;20029;-48
2023/09/02 07:57:35;;;;;;;4.63;2.75;;;19.00;99.90;;;;;;4993673;28;20042;-50
2023/09/02 08:00:01;;;;;;;5.05;2.55;;;18.50;99.90;;;;;;4993509;28;20026;-54
2023/09/02 08:02:26;;;;;;;3.78;2.35;;;18.00;99.90;;;;;;4993596;28;20040;-54
2023/09/02 08:04:52;;;;;;;4.38;2.10;;;18.30;99.90;;;;;;4993731;28;20035;-47
2023/09/02 08:07:17;;;;;;;5.82;2.40;;;18.70;99.90;;;;;;4993448;28;20042;-49
2023/09/02 08:09:43;;;;;;;6.13;2.40;;;19.20;99.90;;;;;;4993525;28;20026;-54
2023/09/02 08:12:09;;;;;;;5.10;1.77;;;18.50;99.90;;;;;;4993337;28;20436;-46
2023/09/02 08:14:34;;;;;;;4.22;2.30;;;19.70;99.90;;;;;;4993268;28;20030;-54
2023/09/02 08:17:00;;;;;;;4.20;2.20;;;20.60;99.90;;;;;;4993162;28;20022;-50
2023/09/02 08:19:25;;;;;;;4.97;2.17;;;18.50;99.90;;;;;;4993389;28;20117;-54
2023/09/02 08:21:51;;;;;;;3.67;2.10;;;;;;;;;;4993300;28;20038;-49
2023/09/02 08:24:17;;;;;;;4.88;2.33;;;19.20;99.90;;;;;;4992999;28;20029;-52
2023/09/02 08:26:42;;;;;;;5.88;2.47;;;19.60;99.90;;;;;;4993158;28;20030;-50
2023/09/02 08:29:08;;;;;;;4.50;2.25;;;18.50;99.90;;;;;;4993033;28;20046;-48
2023/09/02 08:31:34;;;;;;;6.05;2.95;;;18.70;99.90;;;;;;4993114;28;20038;-49
2023/09/02 08:34:00;;;;;;;4.88;1.98;;;19.80;99.90;;;;;;4992874;28;20057;-54
2023/09/02 08:36:25;;;;;;;5.13;2.80;;;21.60;99.90;;;;;;4993039;28;20046;-53
2023/09/02 08:38:52;;;;;;;4.32;2.45;;;22.40;99.90;;;;;;4992907;28;20602;-50
2023/09/02 08:41:30;;;;;;;6.35;3.22;;;19.80;99.90;;;;;;4992864;28;20530;-48
2023/09/02 08:43:59;;;;;;;5.35;2.60;;;20.70;99.90;;;;;;4990329;28;20125;-50
2023/09/02 08:46:26;;;;;;;;;;;19.70;99.90;;;;;;4979799;28;20097;-50
2023/09/02 08:48:55;;;;;;;5.53;2.55;;;21.50;99.90;;;;;;4992855;28;20334;-50
2023/09/02 08:51:22;;;;;;;7.05;2.70;;;19.50;99.90;;;;;;4992526;28;20026;-45
2023/09/02 08:53:50;;;;;;;5.70;2.72;;;19.40;99.90;;;;;;4992990;28;20050;-54
2023/09/02 08:56:16;;;;;;;6.32;3.03;;;19.40;99.90;;;;;;4992484;28;20038;-47
2023/09/02 08:58:43;;;;;;;5.45;2.78;;;20.20;99.90;;;;;;4992523;28;20084;-46
2023/09/02 09:01:10;;;;;;;4.68;2.83;;;19.40;99.90;;;;;;4991526;28;20049;-49
2023/09/02 09:03:40;;;;;;;6.57;2.90;;;19.40;99.90;;;;;;4992355;28;20026;-45
2023/09/02 09:06:09;;;;;;;6.93;2.97;;;19.40;99.90;;;;;;4990959;28;20043;-51
2023/09/02 09:08:35;;;;;;;;;;;19.40;99.90;;;;;;4992813;28;20596;-51
2023/09/02 09:11:04;;;;;;;4.90;2.72;;;19.30;99.90;;;;;;4992385;28;19906;-50
2023/09/02 09:13:30;;;;;;;4.10;2.22;;;19.30;99.90;;;;;;4992273;28;20031;-53
2023/09/02 09:15:57;;;;;;;4.45;2.38;;;19.30;99.90;;;;;;4992170;28;20045;-51
2023/09/02 09:18:22;;;;;;;4.32;2.20;;;19.20;99.90;;;;;;4992166;28;20140;-44
2023/09/02 09:20:48;;;;;;;3.72;1.95;;;19.20;99.90;;;;;;4992352;28;20503;-48
2023/09/02 09:23:14;;;;;;;4.50;2.20;;;19.30;99.90;;;;;;4992213;28;20022;-50
2023/09/02 09:25:39;;;;;;;6.60;1.73;;;18.90;99.90;;;;;;4991761;28;20105;-50
2023/09/02 09:28:09;;;;;;;6.15;2.05;;;19.30;99.90;;;;;;4992075;28;20034;-48
2023/09/02 09:30:35;;;;;;;3.95;2.00;;;19.40;99.90;;;;;;4992074;28;20029;-45
2023/09/02 09:33:04;;;;;;;5.88;2.30;;;19.50;99.90;;;;;;4992402;28;20022;-51
2023/09/02 09:35:30;;;;;;;4.72;1.65;;;19.60;99.90;;;;;;4992121;28;20038;-48
2023/09/02 09:37:56;;;;;;;3.30;1.60;;;19.50;99.90;;;;;;4991903;28;20557;-46
2023/09/02 09:40:35;;;;;;;3.97;1.65;;;19.50;99.90;;;;;;4991956;28;20030;-47
2023/09/02 09:43:14;;;;;;;3.97;1.60;;;19.60;99.90;;;;;;4991820;28;20026;-51
2023/09/02 09:45:49;;;;;;;4.35;2.10;;;19.80;99.90;;;;;;4991720;28;20023;-49
2023/09/02 09:48:15;;;;;;;2.78;1.73;;;20.10;99.90;;;;;;4989021;28;20018;-45
2023/09/02 09:50:41;;;;;;;3.35;1.40;;;20.50;99.90;;;;;;4991751;28;20034;-49
2023/09/02 09:53:09;;;;;;;3.05;1.50;;;21.00;99.90;;;;;;4991636;28;20030;-46
2023/09/02 09:55:36;;;;;;;3.47;1.50;;;21.60;99.90;;;;;;4991128;28;20042;-53
2023/09/02 09:58:04;;;;;;;3.55;1.40;;;22.00;99.90;;;;;;4991639;28;20026;-52
2023/09/02 10:00:30;;;;;;;3.15;1.55;;;22.40;99.90;;;;;;4978100;28;20021;-49
2023/09/02 10:02:58;;;;;;;1.95;1.05;;;22.50;99.90;;;;;;4991759;28;20026;-52
2023/09/02 10:05:31;;;;;;;2.35;1.35;;;22.40;99.90;;;;;;4991561;28;20045;-53
2023/09/02 10:08:02;;;;;;;1.77;1.23;;;22.10;99.90;;;;;;4991256;28;20065;-50
2023/09/02 10:10:38;;;;;;;2.58;1.33;;;22.00;99.90;;;;;;4991233;28;20546;-52
2023/09/02 10:13:04;;;;;;;1.95;1.30;;;22.20;99.90;;;;;;4991431;28;20033;-57
2023/09/02 10:15:31;;;;;;;2.45;1.30;;;22.50;99.90;;;;;;4991269;28;20046;-49
2023/09/02 10:18:01;;;;;;;2.42;1.13;;;22.90;99.90;;;;;;4991110;28;20113;-47
2023/09/02 10:20:29;;;;;;;2.88;1.40;;;23.00;99.90;;;;;;4991048;28;20027;-49
2023/09/02 10:23:09;;;;;;;3.63;1.38;;;23.40;99.90;;;;;;4991102;28;20026;-53
2023/09/02 10:25:50;;;;;;;3.72;1.30;;;23.50;99.90;;;;;;4991059;28;20064;-49
2023/09/02 10:28:39;;;;;;;2.13;1.00;;;23.50;99.90;;;;;;4991175;28;20040;-51
2023/09/02 10:31:21;;;;;;;2.22;1.20;;;23.40;99.90;;;;;;4990782;28;20030;-50
2023/09/02 10:34:02;;;;;;;2.67;1.10;;;23.20;99.90;;;;;;4990946;28;20387;-52
2023/09/02 10:36:29;;;;;;;1.88;1.13;;;23.00;99.90;;;;;;4990586;28;20041;-52
2023/09/02 10:39:00;;;;;;;1.83;1.00;;;23.00;99.90;;;;;;4990953;28;20038;-48
2023/09/02 10:41:27;;;;;;;2.88;1.35;;;23.40;99.90;;;;;;4990702;28;20025;-54
2023/09/02 10:43:55;;;;;;;1.27;0.90;;;23.70;99.90;;;;;;4990951;28;20066;-53
2023/09/02 10:46:21;;;;;;;1.35;1.08;;;23.80;99.90;;;;;;4990502;28;20022;-44
2023/09/02 10:48:48;;;;;;;1.83;0.98;;;24.80;99.90;;;;;;4989536;28;20414;-44
2023/09/02 10:51:14;;;;;;;3.20;0.95;;;25.20;99.90;;;;;;4990692;28;20030;-47
2023/09/02 10:53:52;;;;;;;1.45;0.90;;;25.80;99.90;;;;;;4990533;28;20023;-50
2023/09/02 10:56:31;;;;;;;3.05;1.00;;;26.00;99.90;;;;;;4990619;28;20042;-48
2023/09/02 10:58:59;;;;;;;1.63;1.10;;;26.30;99.90;;;;;;4980346;28;20030;-48
2023/09/02 11:01:24;;;;;;;1.25;0.85;;;26.70;99.90;;;;;;4990628;28;20026;-50
2023/09/02 11:03:53;;;;;;;1.40;0.88;;;27.10;99.90;;;;;;4990711;28;20069;-48
2023/09/02 11:06:19;;;;;;;;;;;27.20;99.90;;;;;;4990953;28;20046;-45
2023/09/02 11:08:49;;;;;;;1.77;1.00;;;26.90;99.90;;;;;;4994127;28;19956;-49
2023/09/02 11:11:16;;;;;;;1.40;0.80;;;26.70;99.90;;;;;;4994532;28;20011;-48
2023/09/02 11:14:06;;;;;;;2.00;1.05;;;26.90;99.90;;;;;;4994397;28;20088;-49
2023/09/02 11:16:32;;;;;;;1.45;0.80;;;27.70;99.90;;;;;;4994410;28;20038;-49
2023/09/02 11:19:00;;;;;;;0.93;0.60;;;27.70;99.90;;;;;;4994337;28;20024;-45
2023/09/02 11:21:46;;;;;;;0.95;0.60;;;27.30;99.90;;;;;;4993077;28;20022;-45
2023/09/02 11:24:16;;;;;;;1.50;0.65;;;27.20;99.90;;;;;;4994272;28;20014;-48
2023/09/02 11:26:55;;;;;;;2.33;0.70;;;26.90;99.90;;;;;;4994334;28;20506;-50
2023/09/02 11:29:25;;;;;;;1.90;0.70;;;26.40;99.90;;;;;;4993937;28;20034;-45
2023/09/02 11:32:09;;;;;;;2.20;0.98;;;26.30;99.90;;;;;;4994088;28;20471;-48
2023/09/02 11:34:36;;;;;;;1.90;0.80;;;26.10;99.90;;;;;;4986974;28;20032;-52
2023/09/02 11:37:03;;;;;;;2.00;0.88;;;25.90;99.90;;;;;;4994003;28;20523;-47
2023/09/02 11:39:31;;;;;;;0.98;0.63;;;25.90;99.90;;;;;;4993968;28;20491;-52
2023/09/02 11:42:07;;;;;;;2.15;0.80;;;25.60;99.90;;;;;;4994026;28;20027;-47
2023/09/02 11:44:33;;;;;;;1.17;0.70;;;25.60;99.90;;;;;;4993863;28;20028;-49
2023/09/02 11:46:59;;;;;;;1.17;0.60;;;25.50;99.90;;;;;;4976372;28;20030;-45
2023/09/02 11:49:26;;;;;;;3.55;0.90;;;25.60;99.90;;;;;;4993894;28;20092;-50
2023/09/02 11:51:52;;;;;;;2.80;0.77;;;25.60;99.90;;;;;;4993706;28;20030;-47
2023/09/02 11:54:18;;;;;;;1.20;0.70;;;25.20;99.90;;;;;;4993666;28;20041;-46
2023/09/02 11:57:02;;;;;;;1.75;0.75;;;25.10;99.90;;;;;;4993592;28;20066;-48
2023/09/02 11:59:28;;;;;;;1.05;0.75;;;25.40;99.90;;;;;;4993666;28;20026;-51
2023/09/02 12:02:10;;;;;;;1.05;0.80;;;25.60;99.90;;;;;;4993559;28;20033;-48
2023/09/02 12:04:40;;;;;;;1.25;0.70;;;25.60;99.90;;;;;;4993426;28;20406;-48
2023/09/02 12:07:07;;;;;;;1.25;0.68;;;25.70;99.90;;;;;;4993461;28;20046;-51
2023/09/02 12:09:35;;;;;;;2.25;0.73;;;25.20;99.90;;;;;;4993377;28;20022;-52
2023/09/02 12:12:02;;;;;;;2.87;1.00;;;25.00;99.90;;;;;;4993251;28;20026;-51
2023/09/02 12:14:28;;;;;;;2.65;1.02;;;24.90;99.90;;;;;;4992572;28;20391;-48
2023/09/02 12:16:55;;;;;;;1.38;0.90;;;24.80;99.90;;;;;;4993073;28;20039;-51
2023/09/02 12:19:21;;;;;;;1.85;1.02;;;24.80;99.90;;;;;;4992869;28;20022;-48
2023/09/02 12:21:47;;;;;;;1.27;0.82;;;24.80;99.90;;;;;;4993166;28;20048;-46
2023/09/02 12:24:13;;;;;;;3.22;0.90;;;24.70;99.90;;;;;;4992789;28;20507;-48
2023/09/02 12:26:49;;;;;;;2.50;1.02;;;24.50;99.90;;;;;;4993081;28;20109;-46
2023/09/02 12:29:19;;;;;;;1.73;1.17;;;24.40;99.90;;;;;;4993115;28;20019;-51
2023/09/02 12:31:58;;;;;;;4.07;1.63;;;24.40;99.90;;;;;;4993134;28;20391;-51
2023/09/02 12:34:33;;;;;;;3.08;1.00;;;24.20;99.90;;;;;;4992855;28;20076;-44
2023/09/02 12:37:18;;;;;;;2.25;0.88;;;24.20;99.90;;;;;;4992826;28;20084;-45
2023/09/02 12:39:44;;;;;;;1.83;1.13;;;24.20;99.90;;;;;;4993236;28;20029;-45
2023/09/02 12:42:27;;;;;;;2.97;0.88;;;24.10;99.90;;;;;;4992758;28;20395;-48
2023/09/02 12:44:54;;;;;;;1.70;0.88;;;23.90;99.90;;;;;;4992776;28;20467;-49
2023/09/02 12:47:22;;;;;;;1.63;0.95;;;23.60;99.90;;;;;;4992728;28;20479;-47
2023/09/02 12:49:48;;;;;;;1.52;0.82;;;23.50;99.90;;;;;;4992684;28;20037;-50
2023/09/02 12:52:20;;;;;;;3.83;0.80;;;23.30;99.90;;;;;;4992823;28;20457;-45
2023/09/02 12:54:56;;;;;;;2.20;1.05;;;23.40;99.90;;;;;;4992526;28;20479;-48
2023/09/02 12:57:23;;;;;;;1.67;0.82;;;23.60;99.90;;;;;;4992569;28;20081;-53
2023/09/02 12:59:49;;;;;;;2.78;1.13;;;23.60;99.90;;;;;;4992546;28;20061;-44